sensor_id;sensor_type;location;lat;lon;timestamp;temperature;humidity
2625;DHT22;1322;53.256;10.386;2023-07-30T00:02:17;18.40;99.90
2625;DHT22;1322;53.256;10.386;2023-07-30T00:04:44;18.40;99.90
2625;DHT22;1322;53.256;10.386;2023-07-30T00:07:10;18.40;99.90
2625;DHT22;1322;53.256;10.386;2023-07-30T00:09:36;18.50;99.90
2625;DHT22;1322;53.256;10.386;2023-07-30T00:12:03;18.50;99.90
2625;DHT22;1322;53.256;10.386;2023-07-30T00:14:29;18.50;99.90
2625;DHT22;1322;53.256;10.386;2023-07-30T00:16:54;18.50;99.90
2625;DHT22;1322;53.256;10.386;2023-07-30T00:19:20;18.50;99.90
2625;DHT22;1322;53.256;10.386;2023-07-30T00:21:46;18.50;99.90
2625;DHT22;1322;53.256;10.386;2023-07-30T00:24:13;18.50;99.90
2625;DHT22;1322;53.256;10.386;2023-07-30T00:26:39;18.50;99.90
2625;DHT22;1322;53.256;10.386;2023-07-30T00:29:04;18.50;99.90
2625;DHT22;1322;53.256;10.386;2023-07-30T00:31:30;18.50;99.90
2625;DHT22;1322;53.256;10.386;2023-07-30T00:33:56;18.50;99.90
2625;DHT22;1322;53.256;10.386;2023-07-30T00:36:22;18.50;99.90
2625;DHT22;1322;53.256;10.386;2023-07-30T00:38:47;18.50;99.90
2625;DHT22;1322;53.256;10.386;2023-07-30T00:41:13;18.50;99.90
2625;DHT22;1322;53.256;10.386;2023-07-30T00:43:39;18.50;99.90
2625;DHT22;1322;53.256;10.386;2023-07-30T00:46:04;18.50;99.90
2625;DHT22;1322;53.256;10.386;2023-07-30T00:48:30;18.40;99.90
2625;DHT22;1322;53.256;10.386;2023-07-30T00:50:57;18.40;99.90
2625;DHT22;1322;53.256;10.386;2023-07-30T00:53:24;18.40;99.90
2625;DHT22;1322;53.256;10.386;2023-07-30T00:55:51;18.40;99.90
2625;DHT22;1322;53.256;10.386;2023-07-30T00:58:17;18.40;99.90
2625;DHT22;1322;53.256;10.386;2023-07-30T01:00:44;18.30;99.90
2625;DHT22;1322;53.256;10.386;2023-07-30T01:03:10;18.30;99.90
2625;DHT22;1322;53.256;10.386;2023-07-30T01:05:36;18.30;99.90
2625;DHT22;1322;53.256;10.386;2023-07-30T01:08:02;18.30;99.90
2625;DHT22;1322;53.256;10.386;2023-07-30T01:10:29;18.30;99.90
2625;DHT22;1322;53.256;10.386;2023-07-30T01:12:55;18.20;99.90
2625;DHT22;1322;53.256;10.386;2023-07-30T01:15:21;18.20;99.90
2625;DHT22;1322;53.256;10.386;2023-07-30T01:17:47;18.20;99.90
2625;DHT22;1322;53.256;10.386;2023-07-30T01:20:13;18.10;99.90
2625;DHT22;1322;53.256;10.386;2023-07-30T01:22:38;18.20;99.90
2625;DHT22;1322;53.256;10.386;2023-07-30T01:25:04;18.10;99.90
2625;DHT22;1322;53.256;10.386;2023-07-30T01:27:36;18.10;99.90
2625;DHT22;1322;53.256;10.386;2023-07-30T01:30:17;18.20;99.90
2625;DHT22;1322;53.256;10.386;2023-07-30T01:32:45;18.10;99.90
2625;DHT22;1322;53.256;10.386;2023-07-30T01:35:13;18.10;99.90
2625;DHT22;1322;53.256;10.386;2023-07-30T01:37:40;18.10;99.90
2625;DHT22;1322;53.256;10.386;2023-07-30T01:40:08;18.10;99.90
2625;DHT22;1322;53.256;10.386;2023-07-30T01:42:34;18.10;99.90
2625;DHT22;1322;53.256;10.386;2023-07-30T01:45:00;18.00;99.90
2625;DHT22;1322;53.256;10.386;2023-07-30T01:47:25;18.00;99.90
2625;DHT22;1322;53.256;10.386;2023-07-30T01:49:51;17.90;99.90
2625;DHT22;1322;53.256;10.386;2023-07-30T01:52:16;18.00;99.90
2625;DHT22;1322;53.256;10.386;2023-07-30T01:54:42;17.90;99.90
2625;DHT22;1322;53.256;10.386;2023-07-30T01:57:08;17.90;99.90
2625;DHT22;1322;53.256;10.386;2023-07-30T01:59:33;18.00;99.90
2625;DHT22;1322;53.256;10.386;2023-07-30T02:01:59;18.00;99.90
2625;DHT22;1322;53.256;10.386;2023-07-30T02:04:25;18.10;99.90
2625;DHT22;1322;53.256;10.386;2023-07-30T02:06:50;18.10;99.90
2625;DHT22;1322;53.256;10.386;2023-07-30T02:09:16;18.20;99.90
2625;DHT22;1322;53.256;10.386;2023-07-30T02:11:41;18.20;99.90
2625;DHT22;1322;53.256;10.386;2023-07-30T02:14:08;18.30;99.90
2625;DHT22;1322;53.256;10.386;2023-07-30T02:16:34;18.30;99.90
2625;DHT22;1322;53.256;10.386;2023-07-30T02:18:59;18.30;99.90
2625;DHT22;1322;53.256;10.386;2023-07-30T02:21:25;18.40;99.90
2625;DHT22;1322;53.256;10.386;2023-07-30T02:23:51;18.40;99.90
2625;DHT22;1322;53.256;10.386;2023-07-30T02:26:16;18.40;99.90
2625;DHT22;1322;53.256;10.386;2023-07-30T02:28:42;18.50;99.90
2625;DHT22;1322;53.256;10.386;2023-07-30T02:31:08;18.50;99.90
2625;DHT22;1322;53.256;10.386;2023-07-30T02:33:34;18.40;99.90
2625;DHT22;1322;53.256;10.386;2023-07-30T02:35:59;18.40;99.90
2625;DHT22;1322;53.256;10.386;2023-07-30T02:38:25;18.40;99.90
2625;DHT22;1322;53.256;10.386;2023-07-30T02:40:51;18.40;99.90
2625;DHT22;1322;53.256;10.386;2023-07-30T02:43:16;18.40;99.90
2625;DHT22;1322;53.256;10.386;2023-07-30T02:45:42;18.40;99.90
2625;DHT22;1322;53.256;10.386;2023-07-30T02:48:07;18.40;99.90
2625;DHT22;1322;53.256;10.386;2023-07-30T02:50:33;18.40;99.90
2625;DHT22;1322;53.256;10.386;2023-07-30T02:52:59;18.50;99.90
2625;DHT22;1322;53.256;10.386;2023-07-30T02:55:24;18.50;99.90
2625;DHT22;1322;53.256;10.386;2023-07-30T02:57:50;18.50;99.90
2625;DHT22;1322;53.256;10.386;2023-07-30T03:00:16;18.50;99.90
2625;DHT22;1322;53.256;10.386;2023-07-30T03:02:41;18.50;99.90
2625;DHT22;1322;53.256;10.386;2023-07-30T03:05:07;18.50;99.90
2625;DHT22;1322;53.256;10.386;2023-07-30T03:07:33;18.50;99.90
2625;DHT22;1322;53.256;10.386;2023-07-30T03:09:59;18.40;99.90
2625;DHT22;1322;53.256;10.386;2023-07-30T03:12:24;18.40;99.90
2625;DHT22;1322;53.256;10.386;2023-07-30T03:14:50;18.40;99.90
2625;DHT22;1322;53.256;10.386;2023-07-30T03:17:16;18.40;99.90
2625;DHT22;1322;53.256;10.386;2023-07-30T03:19:41;18.40;99.90
2625;DHT22;1322;53.256;10.386;2023-07-30T03:22:07;18.40;99.90
2625;DHT22;1322;53.256;10.386;2023-07-30T03:24:32;18.30;99.90
2625;DHT22;1322;53.256;10.386;2023-07-30T03:26:58;18.30;99.90
2625;DHT22;1322;53.256;10.386;2023-07-30T03:29:24;18.30;99.90
2625;DHT22;1322;53.256;10.386;2023-07-30T03:31:49;18.20;99.90
2625;DHT22;1322;53.256;10.386;2023-07-30T03:34:16;18.10;99.90
2625;DHT22;1322;53.256;10.386;2023-07-30T03:36:41;18.10;99.90
2625;DHT22;1322;53.256;10.386;2023-07-30T03:39:07;18.10;99.90
2625;DHT22;1322;53.256;10.386;2023-07-30T03:41:33;18.10;99.90
2625;DHT22;1322;53.256;10.386;2023-07-30T03:43:58;18.00;99.90
2625;DHT22;1322;53.256;10.386;2023-07-30T03:46:24;18.00;99.90
2625;DHT22;1322;53.256;10.386;2023-07-30T03:48:49;18.00;99.90
2625;DHT22;1322;53.256;10.386;2023-07-30T03:51:15;18.10;99.90
2625;DHT22;1322;53.256;10.386;2023-07-30T03:53:41;18.10;99.90
2625;DHT22;1322;53.256;10.386;2023-07-30T03:56:08;18.10;99.90
2625;DHT22;1322;53.256;10.386;2023-07-30T03:58:33;18.10;99.90
2625;DHT22;1322;53.256;10.386;2023-07-30T04:00:59;18.10;99.90
2625;DHT22;1322;53.256;10.386;2023-07-30T04:03:25;18.10;99.90
2625;DHT22;1322;53.256;10.386;2023-07-30T04:05:50;18.10;99.90
2625;DHT22;1322;53.256;10.386;2023-07-30T04:08:16;18.10;99.90
2625;DHT22;1322;53.256;10.386;2023-07-30T04:10:42;18.20;99.90
2625;DHT22;1322;53.256;10.386;2023-07-30T04:13:07;18.30;99.90
2625;DHT22;1322;53.256;10.386;2023-07-30T04:15:33;18.30;99.90
2625;DHT22;1322;53.256;10.386;2023-07-30T04:17:59;18.30;99.90
2625;DHT22;1322;53.256;10.386;2023-07-30T04:20:25;18.30;99.90
2625;DHT22;1322;53.256;10.386;2023-07-30T04:22:51;18.40;99.90
2625;DHT22;1322;53.256;10.386;2023-07-30T04:25:17;18.40;99.90
2625;DHT22;1322;53.256;10.386;2023-07-30T04:27:42;18.50;99.90
2625;DHT22;1322;53.256;10.386;2023-07-30T04:30:08;18.50;99.90
2625;DHT22;1322;53.256;10.386;2023-07-30T04:32:34;18.60;99.90
2625;DHT22;1322;53.256;10.386;2023-07-30T04:35:01;18.70;99.90
2625;DHT22;1322;53.256;10.386;2023-07-30T04:37:28;18.70;99.90
2625;DHT22;1322;53.256;10.386;2023-07-30T04:39:54;18.80;99.90
2625;DHT22;1322;53.256;10.386;2023-07-30T04:42:19;18.80;99.90
2625;DHT22;1322;53.256;10.386;2023-07-30T04:44:45;18.90;99.90
2625;DHT22;1322;53.256;10.386;2023-07-30T04:47:11;19.00;99.90
2625;DHT22;1322;53.256;10.386;2023-07-30T04:49:36;19.10;99.90
2625;DHT22;1322;53.256;10.386;2023-07-30T04:52:06;19.10;99.90
2625;DHT22;1322;53.256;10.386;2023-07-30T04:54:32;19.20;99.90
2625;DHT22;1322;53.256;10.386;2023-07-30T04:56:58;19.30;99.90
2625;DHT22;1322;53.256;10.386;2023-07-30T04:59:23;19.30;99.90
2625;DHT22;1322;53.256;10.386;2023-07-30T05:01:49;19.40;99.90
2625;DHT22;1322;53.256;10.386;2023-07-30T05:04:14;19.50;99.90
2625;DHT22;1322;53.256;10.386;2023-07-30T05:06:40;19.70;99.90
2625;DHT22;1322;53.256;10.386;2023-07-30T05:09:06;19.90;99.90
2625;DHT22;1322;53.256;10.386;2023-07-30T05:11:31;20.10;99.90
2625;DHT22;1322;53.256;10.386;2023-07-30T05:13:57;20.30;99.90
2625;DHT22;1322;53.256;10.386;2023-07-30T05:16:22;20.50;99.90
2625;DHT22;1322;53.256;10.386;2023-07-30T05:18:48;20.60;99.90
2625;DHT22;1322;53.256;10.386;2023-07-30T05:21:14;20.80;99.90
2625;DHT22;1322;53.256;10.386;2023-07-30T05:23:39;20.90;99.90
2625;DHT22;1322;53.256;10.386;2023-07-30T05:26:05;21.10;99.90
2625;DHT22;1322;53.256;10.386;2023-07-30T05:28:31;21.20;99.90
2625;DHT22;1322;53.256;10.386;2023-07-30T05:30:56;21.30;99.90
2625;DHT22;1322;53.256;10.386;2023-07-30T05:33:22;21.50;99.90
2625;DHT22;1322;53.256;10.386;2023-07-30T05:35:47;21.60;99.90
2625;DHT22;1322;53.256;10.386;2023-07-30T05:38:13;21.70;99.90
2625;DHT22;1322;53.256;10.386;2023-07-30T05:40:39;21.90;99.90
2625;DHT22;1322;53.256;10.386;2023-07-30T05:43:04;22.10;99.90
2625;DHT22;1322;53.256;10.386;2023-07-30T05:45:30;22.30;99.90
2625;DHT22;1322;53.256;10.386;2023-07-30T05:47:55;22.40;99.90
2625;DHT22;1322;53.256;10.386;2023-07-30T05:50:21;22.60;99.90
2625;DHT22;1322;53.256;10.386;2023-07-30T05:52:47;22.70;99.90
2625;DHT22;1322;53.256;10.386;2023-07-30T05:55:12;22.70;99.90
2625;DHT22;1322;53.256;10.386;2023-07-30T05:57:38;22.50;99.90
2625;DHT22;1322;53.256;10.386;2023-07-30T06:00:04;22.40;99.90
2625;DHT22;1322;53.256;10.386;2023-07-30T06:02:30;22.40;99.90
2625;DHT22;1322;53.256;10.386;2023-07-30T06:04:55;22.40;99.90
2625;DHT22;1322;53.256;10.386;2023-07-30T06:07:21;22.30;99.90
2625;DHT22;1322;53.256;10.386;2023-07-30T06:09:46;22.10;99.90
2625;DHT22;1322;53.256;10.386;2023-07-30T06:12:12;22.00;99.90
2625;DHT22;1322;53.256;10.386;2023-07-30T06:14:38;21.80;99.90
2625;DHT22;1322;53.256;10.386;2023-07-30T06:17:03;21.70;99.90
2625;DHT22;1322;53.256;10.386;2023-07-30T06:19:29;21.70;99.90
2625;DHT22;1322;53.256;10.386;2023-07-30T06:21:55;21.80;99.90
2625;DHT22;1322;53.256;10.386;2023-07-30T06:24:20;21.90;99.90
2625;DHT22;1322;53.256;10.386;2023-07-30T06:26:46;22.00;99.90
2625;DHT22;1322;53.256;10.386;2023-07-30T06:29:12;22.30;99.90
2625;DHT22;1322;53.256;10.386;2023-07-30T06:31:37;22.60;99.90
2625;DHT22;1322;53.256;10.386;2023-07-30T06:34:03;22.80;99.90
2625;DHT22;1322;53.256;10.386;2023-07-30T06:36:29;23.00;99.90
2625;DHT22;1322;53.256;10.386;2023-07-30T06:38:54;23.10;99.90
2625;DHT22;1322;53.256;10.386;2023-07-30T06:41:21;23.20;99.90
2625;DHT22;1322;53.256;10.386;2023-07-30T06:43:46;23.40;99.90
2625;DHT22;1322;53.256;10.386;2023-07-30T06:46:12;23.60;99.90
2625;DHT22;1322;53.256;10.386;2023-07-30T06:48:37;23.60;99.90
2625;DHT22;1322;53.256;10.386;2023-07-30T06:51:06;23.70;99.90
2625;DHT22;1322;53.256;10.386;2023-07-30T06:53:31;23.90;99.90
2625;DHT22;1322;53.256;10.386;2023-07-30T06:55:57;23.90;99.90
2625;DHT22;1322;53.256;10.386;2023-07-30T06:58:23;24.00;99.90
2625;DHT22;1322;53.256;10.386;2023-07-30T07:00:48;24.00;99.90
2625;DHT22;1322;53.256;10.386;2023-07-30T07:03:14;24.00;99.90
2625;DHT22;1322;53.256;10.386;2023-07-30T07:05:40;23.90;99.90
2625;DHT22;1322;53.256;10.386;2023-07-30T07:08:05;23.90;99.90
2625;DHT22;1322;53.256;10.386;2023-07-30T07:10:31;23.90;99.90
2625;DHT22;1322;53.256;10.386;2023-07-30T07:12:57;23.70;99.90
2625;DHT22;1322;53.256;10.386;2023-07-30T07:15:22;23.50;99.90
2625;DHT22;1322;53.256;10.386;2023-07-30T07:17:48;23.30;99.90
2625;DHT22;1322;53.256;10.386;2023-07-30T07:20:13;23.40;99.90
2625;DHT22;1322;53.256;10.386;2023-07-30T07:22:39;23.70;99.90
2625;DHT22;1322;53.256;10.386;2023-07-30T07:25:05;24.00;99.90
2625;DHT22;1322;53.256;10.386;2023-07-30T07:27:30;24.30;99.90
2625;DHT22;1322;53.256;10.386;2023-07-30T07:29:56;24.40;99.90
2625;DHT22;1322;53.256;10.386;2023-07-30T07:32:22;24.50;99.90
2625;DHT22;1322;53.256;10.386;2023-07-30T07:34:48;24.50;99.90
2625;DHT22;1322;53.256;10.386;2023-07-30T07:37:15;24.30;99.90
2625;DHT22;1322;53.256;10.386;2023-07-30T07:39:42;24.10;99.90
2625;DHT22;1322;53.256;10.386;2023-07-30T07:42:09;23.90;99.90
2625;DHT22;1322;53.256;10.386;2023-07-30T07:44:35;23.80;99.90
2625;DHT22;1322;53.256;10.386;2023-07-30T07:47:00;24.10;99.90
2625;DHT22;1322;53.256;10.386;2023-07-30T07:49:26;24.30;99.90
2625;DHT22;1322;53.256;10.386;2023-07-30T07:51:51;24.30;99.90
2625;DHT22;1322;53.256;10.386;2023-07-30T07:54:17;24.40;99.90
2625;DHT22;1322;53.256;10.386;2023-07-30T07:56:42;24.40;99.90
2625;DHT22;1322;53.256;10.386;2023-07-30T07:59:08;24.30;99.90
2625;DHT22;1322;53.256;10.386;2023-07-30T08:01:34;24.30;99.90
2625;DHT22;1322;53.256;10.386;2023-07-30T08:03:59;24.50;99.90
2625;DHT22;1322;53.256;10.386;2023-07-30T08:06:25;24.70;99.90
2625;DHT22;1322;53.256;10.386;2023-07-30T08:08:51;24.80;99.90
2625;DHT22;1322;53.256;10.386;2023-07-30T08:11:16;24.90;99.90
2625;DHT22;1322;53.256;10.386;2023-07-30T08:13:42;25.10;99.90
2625;DHT22;1322;53.256;10.386;2023-07-30T08:16:08;25.20;99.90
2625;DHT22;1322;53.256;10.386;2023-07-30T08:18:33;25.30;99.90
2625;DHT22;1322;53.256;10.386;2023-07-30T08:21:00;25.30;99.90
2625;DHT22;1322;53.256;10.386;2023-07-30T08:23:25;25.20;99.90
2625;DHT22;1322;53.256;10.386;2023-07-30T08:25:51;25.20;99.90
2625;DHT22;1322;53.256;10.386;2023-07-30T08:28:17;25.10;99.90
2625;DHT22;1322;53.256;10.386;2023-07-30T08:30:42;25.10;99.90
2625;DHT22;1322;53.256;10.386;2023-07-30T08:33:08;25.30;99.90
2625;DHT22;1322;53.256;10.386;2023-07-30T08:35:33;25.40;99.90
2625;DHT22;1322;53.256;10.386;2023-07-30T08:37:59;25.40;99.90
2625;DHT22;1322;53.256;10.386;2023-07-30T08:40:25;25.30;99.90
2625;DHT22;1322;53.256;10.386;2023-07-30T08:42:52;25.10;99.90
2625;DHT22;1322;53.256;10.386;2023-07-30T08:45:18;25.00;99.90
2625;DHT22;1322;53.256;10.386;2023-07-30T08:47:44;25.00;99.90
2625;DHT22;1322;53.256;10.386;2023-07-30T08:50:10;25.20;99.90
2625;DHT22;1322;53.256;10.386;2023-07-30T08:52:36;25.30;99.90
2625;DHT22;1322;53.256;10.386;2023-07-30T08:55:03;25.40;99.90
2625;DHT22;1322;53.256;10.386;2023-07-30T08:57:30;25.50;99.90
2625;DHT22;1322;53.256;10.386;2023-07-30T09:00:11;25.40;99.90
2625;DHT22;1322;53.256;10.386;2023-07-30T09:05:12;25.30;99.90
2625;DHT22;1322;53.256;10.386;2023-07-30T09:07:37;25.30;99.90
2625;DHT22;1322;53.256;10.386;2023-07-30T09:10:03;25.40;99.90
2625;DHT22;1322;53.256;10.386;2023-07-30T09:12:33;25.40;99.90
2625;DHT22;1322;53.256;10.386;2023-07-30T09:14:59;25.50;99.90
2625;DHT22;1322;53.256;10.386;2023-07-30T09:17:25;25.60;99.90
2625;DHT22;1322;53.256;10.386;2023-07-30T09:19:52;25.60;99.90
2625;DHT22;1322;53.256;10.386;2023-07-30T09:22:28;25.80;99.90
2625;DHT22;1322;53.256;10.386;2023-07-30T09:24:55;25.90;99.90
2625;DHT22;1322;53.256;10.386;2023-07-30T09:27:25;25.90;99.90
2625;DHT22;1322;53.256;10.386;2023-07-30T09:29:59;25.90;99.90
2625;DHT22;1322;53.256;10.386;2023-07-30T09:32:29;25.80;99.90
2625;DHT22;1322;53.256;10.386;2023-07-30T09:35:03;25.80;99.90
2625;DHT22;1322;53.256;10.386;2023-07-30T09:37:31;25.90;99.90
2625;DHT22;1322;53.256;10.386;2023-07-30T09:39:57;26.00;99.90
2625;DHT22;1322;53.256;10.386;2023-07-30T09:42:27;26.00;99.90
2625;DHT22;1322;53.256;10.386;2023-07-30T09:44:53;25.90;99.90
2625;DHT22;1322;53.256;10.386;2023-07-30T09:47:19;26.00;99.90
2625;DHT22;1322;53.256;10.386;2023-07-30T09:49:44;26.00;99.90
2625;DHT22;1322;53.256;10.386;2023-07-30T09:52:12;26.00;99.90
2625;DHT22;1322;53.256;10.386;2023-07-30T09:54:39;26.00;99.90
2625;DHT22;1322;53.256;10.386;2023-07-30T09:57:06;26.00;99.90
2625;DHT22;1322;53.256;10.386;2023-07-30T09:59:32;26.00;99.90
2625;DHT22;1322;53.256;10.386;2023-07-30T10:01:58;26.00;99.90
2625;DHT22;1322;53.256;10.386;2023-07-30T10:04:24;26.00;99.90
2625;DHT22;1322;53.256;10.386;2023-07-30T10:07:04;26.00;99.90
2625;DHT22;1322;53.256;10.386;2023-07-30T10:09:37;26.10;99.90
2625;DHT22;1322;53.256;10.386;2023-07-30T10:12:12;26.20;99.90
2625;DHT22;1322;53.256;10.386;2023-07-30T10:14:39;26.30;99.90
2625;DHT22;1322;53.256;10.386;2023-07-30T10:17:05;26.00;99.90
2625;DHT22;1322;53.256;10.386;2023-07-30T10:19:31;26.00;99.90
2625;DHT22;1322;53.256;10.386;2023-07-30T10:22:21;26.00;99.90
2625;DHT22;1322;53.256;10.386;2023-07-30T10:27:24;25.60;99.90
2625;DHT22;1322;53.256;10.386;2023-07-30T10:32:58;25.70;99.90
2625;DHT22;1322;53.256;10.386;2023-07-30T10:35:40;25.70;99.90
2625;DHT22;1322;53.256;10.386;2023-07-30T10:40:41;25.80;99.90
2625;DHT22;1322;53.256;10.386;2023-07-30T10:43:17;25.80;99.90
2625;DHT22;1322;53.256;10.386;2023-07-30T10:45:50;25.90;99.90
2625;DHT22;1322;53.256;10.386;2023-07-30T10:48:16;26.10;99.90
2625;DHT22;1322;53.256;10.386;2023-07-30T10:50:42;26.20;99.90
2625;DHT22;1322;53.256;10.386;2023-07-30T10:53:08;26.50;99.90
2625;DHT22;1322;53.256;10.386;2023-07-30T10:55:34;26.50;99.90
2625;DHT22;1322;53.256;10.386;2023-07-30T10:58:01;26.60;99.90
2625;DHT22;1322;53.256;10.386;2023-07-30T11:00:27;26.50;99.90
2625;DHT22;1322;53.256;10.386;2023-07-30T11:02:53;26.40;99.90
2625;DHT22;1322;53.256;10.386;2023-07-30T11:05:19;26.30;99.90
2625;DHT22;1322;53.256;10.386;2023-07-30T11:07:51;26.00;99.90
2625;DHT22;1322;53.256;10.386;2023-07-30T11:10:17;26.00;99.90
2625;DHT22;1322;53.256;10.386;2023-07-30T11:12:43;26.00;99.90
2625;DHT22;1322;53.256;10.386;2023-07-30T11:15:09;26.00;99.90
2625;DHT22;1322;53.256;10.386;2023-07-30T11:17:35;25.90;99.90
2625;DHT22;1322;53.256;10.386;2023-07-30T11:20:01;25.90;99.90
2625;DHT22;1322;53.256;10.386;2023-07-30T11:22:31;25.90;99.90
2625;DHT22;1322;53.256;10.386;2023-07-30T11:24:57;26.10;99.90
2625;DHT22;1322;53.256;10.386;2023-07-30T11:27:23;26.30;99.90
2625;DHT22;1322;53.256;10.386;2023-07-30T11:29:58;26.30;99.90
2625;DHT22;1322;53.256;10.386;2023-07-30T11:32:24;26.20;99.90
2625;DHT22;1322;53.256;10.386;2023-07-30T11:34:52;26.10;99.90
2625;DHT22;1322;53.256;10.386;2023-07-30T11:37:19;26.00;99.90
2625;DHT22;1322;53.256;10.386;2023-07-30T11:39:44;25.70;99.90
2625;DHT22;1322;53.256;10.386;2023-07-30T11:42:10;25.50;99.90
2625;DHT22;1322;53.256;10.386;2023-07-30T11:44:37;25.40;99.90
2625;DHT22;1322;53.256;10.386;2023-07-30T11:47:04;25.50;99.90
2625;DHT22;1322;53.256;10.386;2023-07-30T11:49:29;25.50;99.90
2625;DHT22;1322;53.256;10.386;2023-07-30T11:52:05;25.60;99.90
2625;DHT22;1322;53.256;10.386;2023-07-30T11:54:31;25.50;99.90
2625;DHT22;1322;53.256;10.386;2023-07-30T11:56:58;25.40;99.90
2625;DHT22;1322;53.256;10.386;2023-07-30T11:59:23;25.40;99.90
2625;DHT22;1322;53.256;10.386;2023-07-30T12:01:49;25.30;99.90
2625;DHT22;1322;53.256;10.386;2023-07-30T12:04:15;25.40;99.90
2625;DHT22;1322;53.256;10.386;2023-07-30T12:06:47;25.40;99.90
2625;DHT22;1322;53.256;10.386;2023-07-30T12:09:16;25.30;99.90
2625;DHT22;1322;53.256;10.386;2023-07-30T12:11:58;25.30;99.90
2625;DHT22;1322;53.256;10.386;2023-07-30T12:17:16;25.40;99.90
2625;DHT22;1322;53.256;10.386;2023-07-30T12:19:41;25.40;99.90
2625;DHT22;1322;53.256;10.386;2023-07-30T12:22:07;25.40;99.90
2625;DHT22;1322;53.256;10.386;2023-07-30T12:24:33;25.40;99.90
2625;DHT22;1322;53.256;10.386;2023-07-30T12:26:59;25.20;99.90
2625;DHT22;1322;53.256;10.386;2023-07-30T12:29:25;25.10;99.90
2625;DHT22;1322;53.256;10.386;2023-07-30T12:31:51;25.00;99.90
2625;DHT22;1322;53.256;10.386;2023-07-30T12:34:22;24.90;99.90
2625;DHT22;1322;53.256;10.386;2023-07-30T12:36:49;24.90;99.90
2625;DHT22;1322;53.256;10.386;2023-07-30T12:39:14;25.00;99.90
2625;DHT22;1322;53.256;10.386;2023-07-30T12:41:40;25.00;99.90
2625;DHT22;1322;53.256;10.386;2023-07-30T12:44:05;25.00;99.90
2625;DHT22;1322;53.256;10.386;2023-07-30T12:46:31;25.00;99.90
2625;DHT22;1322;53.256;10.386;2023-07-30T12:48:58;25.10;99.90
2625;DHT22;1322;53.256;10.386;2023-07-30T12:51:30;25.10;99.90
2625;DHT22;1322;53.256;10.386;2023-07-30T12:53:55;25.00;99.90
2625;DHT22;1322;53.256;10.386;2023-07-30T12:56:21;24.90;99.90
2625;DHT22;1322;53.256;10.386;2023-07-30T12:58:47;25.00;99.90
2625;DHT22;1322;53.256;10.386;2023-07-30T13:01:12;24.90;99.90
2625;DHT22;1322;53.256;10.386;2023-07-30T13:03:38;24.90;99.90
2625;DHT22;1322;53.256;10.386;2023-07-30T13:06:04;25.00;99.90
2625;DHT22;1322;53.256;10.386;2023-07-30T13:08:30;25.00;99.90
2625;DHT22;1322;53.256;10.386;2023-07-30T13:10:56;25.00;99.90
2625;DHT22;1322;53.256;10.386;2023-07-30T13:13:24;25.00;99.90
2625;DHT22;1322;53.256;10.386;2023-07-30T13:15:49;25.10;99.90
2625;DHT22;1322;53.256;10.386;2023-07-30T13:18:15;25.10;99.90
2625;DHT22;1322;53.256;10.386;2023-07-30T13:20:40;25.10;99.90
2625;DHT22;1322;53.256;10.386;2023-07-30T13:23:06;25.10;99.90
2625;DHT22;1322;53.256;10.386;2023-07-30T13:25:32;25.10;99.90
2625;DHT22;1322;53.256;10.386;2023-07-30T13:27:58;25.20;99.90
2625;DHT22;1322;53.256;10.386;2023-07-30T13:30:23;25.10;99.90
2625;DHT22;1322;53.256;10.386;2023-07-30T13:32:49;25.00;99.90
2625;DHT22;1322;53.256;10.386;2023-07-30T13:35:14;25.10;99.90
2625;DHT22;1322;53.256;10.386;2023-07-30T13:37:40;25.20;99.90
2625;DHT22;1322;53.256;10.386;2023-07-30T13:40:06;25.20;99.90
2625;DHT22;1322;53.256;10.386;2023-07-30T13:42:32;25.00;99.90
2625;DHT22;1322;53.256;10.386;2023-07-30T13:44:57;24.90;99.90
2625;DHT22;1322;53.256;10.386;2023-07-30T13:47:23;24.50;99.90
2625;DHT22;1322;53.256;10.386;2023-07-30T13:49:49;24.30;99.90
2625;DHT22;1322;53.256;10.386;2023-07-30T13:52:14;24.30;99.90
2625;DHT22;1322;53.256;10.386;2023-07-30T13:54:40;24.40;99.90
2625;DHT22;1322;53.256;10.386;2023-07-30T13:57:07;24.50;99.90
2625;DHT22;1322;53.256;10.386;2023-07-30T13:59:33;24.20;99.90
2625;DHT22;1322;53.256;10.386;2023-07-30T14:01:58;24.00;99.90
2625;DHT22;1322;53.256;10.386;2023-07-30T14:04:24;23.90;99.90
2625;DHT22;1322;53.256;10.386;2023-07-30T14:06:50;23.60;99.90
2625;DHT22;1322;53.256;10.386;2023-07-30T14:09:16;22.80;99.90
2625;DHT22;1322;53.256;10.386;2023-07-30T14:11:41;22.10;99.90
2625;DHT22;1322;53.256;10.386;2023-07-30T14:14:10;21.50;99.90
2625;DHT22;1322;53.256;10.386;2023-07-30T14:16:36;21.00;99.90
2625;DHT22;1322;53.256;10.386;2023-07-30T14:19:01;20.70;99.90
2625;DHT22;1322;53.256;10.386;2023-07-30T14:21:27;20.20;99.90
2625;DHT22;1322;53.256;10.386;2023-07-30T14:23:53;19.70;99.90
2625;DHT22;1322;53.256;10.386;2023-07-30T14:26:18;19.30;99.90
2625;DHT22;1322;53.256;10.386;2023-07-30T14:28:44;19.10;99.90
2625;DHT22;1322;53.256;10.386;2023-07-30T14:31:11;19.00;99.90
2625;DHT22;1322;53.256;10.386;2023-07-30T14:33:36;18.90;99.90
2625;DHT22;1322;53.256;10.386;2023-07-30T14:36:02;18.90;99.90
2625;DHT22;1322;53.256;10.386;2023-07-30T14:38:29;19.00;99.90
2625;DHT22;1322;53.256;10.386;2023-07-30T14:40:56;19.20;99.90
2625;DHT22;1322;53.256;10.386;2023-07-30T14:43:22;19.40;99.90
2625;DHT22;1322;53.256;10.386;2023-07-30T14:45:49;19.80;99.90
2625;DHT22;1322;53.256;10.386;2023-07-30T14:48:15;20.10;99.90
2625;DHT22;1322;53.256;10.386;2023-07-30T14:50:40;20.30;99.90
2625;DHT22;1322;53.256;10.386;2023-07-30T14:53:06;20.40;99.90
2625;DHT22;1322;53.256;10.386;2023-07-30T14:55:32;20.40;99.90
2625;DHT22;1322;53.256;10.386;2023-07-30T14:57:57;20.60;99.90
2625;DHT22;1322;53.256;10.386;2023-07-30T15:00:23;20.90;99.90
2625;DHT22;1322;53.256;10.386;2023-07-30T15:02:51;21.20;99.90
2625;DHT22;1322;53.256;10.386;2023-07-30T15:05:18;21.40;99.90
2625;DHT22;1322;53.256;10.386;2023-07-30T15:07:44;21.60;99.90
2625;DHT22;1322;53.256;10.386;2023-07-30T15:10:09;21.70;99.90
2625;DHT22;1322;53.256;10.386;2023-07-30T15:12:35;21.80;99.90
2625;DHT22;1322;53.256;10.386;2023-07-30T15:15:01;21.90;99.90
2625;DHT22;1322;53.256;10.386;2023-07-30T15:17:27;22.00;99.90
2625;DHT22;1322;53.256;10.386;2023-07-30T15:19:52;22.10;99.90
2625;DHT22;1322;53.256;10.386;2023-07-30T15:22:19;22.20;99.90
2625;DHT22;1322;53.256;10.386;2023-07-30T15:24:45;22.50;99.90
2625;DHT22;1322;53.256;10.386;2023-07-30T15:27:11;22.70;99.90
2625;DHT22;1322;53.256;10.386;2023-07-30T15:29:36;22.80;99.90
2625;DHT22;1322;53.256;10.386;2023-07-30T15:32:02;22.90;99.90
2625;DHT22;1322;53.256;10.386;2023-07-30T15:34:28;22.90;99.90
2625;DHT22;1322;53.256;10.386;2023-07-30T15:36:53;22.90;99.90
2625;DHT22;1322;53.256;10.386;2023-07-30T15:39:19;22.90;99.90
2625;DHT22;1322;53.256;10.386;2023-07-30T15:41:46;22.90;99.90
2625;DHT22;1322;53.256;10.386;2023-07-30T15:44:12;22.90;99.90
2625;DHT22;1322;53.256;10.386;2023-07-30T15:46:37;22.90;99.90
2625;DHT22;1322;53.256;10.386;2023-07-30T15:49:03;22.80;99.90
2625;DHT22;1322;53.256;10.386;2023-07-30T15:51:29;22.70;99.90
2625;DHT22;1322;53.256;10.386;2023-07-30T15:53:54;22.70;99.90